createdAt,value
2022-10-20T00:01:22.511Z,100144.95
2022-10-20T00:03:51.575Z,100148.77
2022-10-20T00:06:28.697Z,100151.81
2022-10-20T00:08:59.516Z,100155.17
2022-10-20T00:11:29.309Z,100153.67
2022-10-20T00:13:58.862Z,100153.30
2022-10-20T00:16:29.281Z,100150.20
2022-10-20T00:18:58.593Z,100149.21
2022-10-20T00:21:28.873Z,100152.85
2022-10-20T00:23:59.930Z,100156.52
2022-10-20T00:26:29.505Z,100159.38
2022-10-20T00:28:58.309Z,100159.03
2022-10-20T00:31:26.897Z,100157.08
2022-10-20T00:33:55.382Z,100159.27
2022-10-20T00:36:24.583Z,100157.42
2022-10-20T00:38:58.308Z,100156.33
2022-10-20T00:41:27.515Z,100154.21
2022-10-20T00:44:01.946Z,100158.75
2022-10-20T00:46:39.159Z,100154.92
2022-10-20T00:49:18.093Z,100155.82
2022-10-20T00:51:46.910Z,100153.58
2022-10-20T00:54:19.859Z,100151.90
2022-10-20T00:57:17.530Z,100151.70
2022-10-20T00:59:46.070Z,100151.78
2022-10-20T01:02:14.609Z,100151.37
2022-10-20T01:04:44.507Z,100155.77
2022-10-20T01:07:12.722Z,100157.98
2022-10-20T01:09:41.077Z,100155.16
2022-10-20T01:12:37.578Z,100153.54
2022-10-20T01:15:56.366Z,100155.83
2022-10-20T01:18:55.863Z,100155.61
2022-10-20T01:21:54.118Z,100157.09
2022-10-20T01:25:37.229Z,100159.05
2022-10-20T01:28:23.958Z,100156.92
2022-10-20T01:30:59.055Z,100159.02
2022-10-20T01:33:36.508Z,100152.63
2022-10-20T01:36:12.779Z,100154.00
2022-10-20T01:39:01.470Z,100157.75
2022-10-20T01:42:11.209Z,100160.66
2022-10-20T01:44:41.449Z,100161.51
2022-10-20T01:47:12.297Z,100159.02
2022-10-20T01:49:44.535Z,100158.25
2022-10-20T01:52:13.525Z,100155.28
2022-10-20T01:54:41.868Z,100152.01
2022-10-20T01:57:51.730Z,100149.88
2022-10-20T02:00:20.235Z,100148.50
2022-10-20T02:02:51.237Z,100151.81
2022-10-20T02:05:51.571Z,100152.13
2022-10-20T02:08:37.660Z,100148.02
2022-10-20T02:11:10.578Z,100151.59
2022-10-20T02:13:39.801Z,100153.08
2022-10-20T02:16:19.649Z,100150.27
2022-10-20T02:18:49.084Z,100151.20
2022-10-20T02:21:17.938Z,100152.01
2022-10-20T02:23:50.042Z,100149.03
2022-10-20T02:26:22.322Z,100150.95
2022-10-20T02:28:59.071Z,100152.41
2022-10-20T02:31:27.991Z,100150.70
2022-10-20T02:33:57.693Z,100150.23
2022-10-20T02:36:28.878Z,100151.67
2022-10-20T02:38:57.229Z,100154.70
2022-10-20T02:41:26.775Z,100153.62
2022-10-20T02:43:54.977Z,100153.63
2022-10-20T02:46:23.756Z,100151.64
2022-10-20T02:48:52.076Z,100151.88
2022-10-20T02:51:20.427Z,100153.52
2022-10-20T02:53:49.918Z,100155.60
2022-10-20T02:56:18.242Z,100159.96
2022-10-20T02:58:46.484Z,100165.80
2022-10-20T03:01:14.886Z,100163.05
2022-10-20T03:03:43.489Z,100167.45
2022-10-20T03:06:15.326Z,100165.59
2022-10-20T03:08:44.575Z,100170.61
2022-10-20T03:11:12.878Z,100171.38
2022-10-20T03:13:41.237Z,100172.86
2022-10-20T03:16:09.599Z,100172.42
2022-10-20T03:18:37.865Z,100173.20
2022-10-20T03:21:06.114Z,100173.27
2022-10-20T03:23:34.386Z,100175.44
2022-10-20T03:26:04.477Z,100180.63
2022-10-20T03:28:32.977Z,100184.17
2022-10-20T03:31:01.361Z,100188.47
2022-10-20T03:33:29.616Z,100189.96
2022-10-20T03:35:57.993Z,100191.67
2022-10-20T03:38:26.273Z,100191.45
2022-10-20T03:40:54.622Z,100191.54
2022-10-20T03:43:22.974Z,100193.49
2022-10-20T03:45:51.470Z,100199.98
2022-10-20T03:48:19.713Z,100201.59
2022-10-20T03:50:48.036Z,100204.27
2022-10-20T03:53:16.330Z,100206.30
2022-10-20T03:55:44.598Z,100212.06
2022-10-20T03:58:12.830Z,100210.79
2022-10-20T04:00:45.569Z,100213.63
2022-10-20T04:03:14.083Z,100215.04
2022-10-20T04:05:42.462Z,100212.71
2022-10-20T04:12:30.931Z,100213.02
2022-10-20T04:14:59.180Z,100210.43
2022-10-20T04:17:28.592Z,100215.16
2022-10-20T04:19:56.873Z,100219.76
2022-10-20T04:22:25.735Z,100215.59
2022-10-20T04:24:53.970Z,100219.63
2022-10-20T04:27:22.264Z,100216.33
2022-10-20T04:29:50.562Z,100217.88
2022-10-20T04:32:18.771Z,100218.02
2022-10-20T04:34:47.028Z,100215.39
2022-10-20T04:37:15.251Z,100218.23
2022-10-20T04:39:43.633Z,100219.32
2022-10-20T04:42:11.967Z,100221.44
2022-10-20T04:44:40.229Z,100216.44
2022-10-20T04:47:08.502Z,100210.91
2022-10-20T04:49:36.778Z,100206.41
2022-10-20T04:52:05.064Z,100207.38
2022-10-20T04:54:33.354Z,100209.38
2022-10-20T04:57:01.753Z,100212.05
2022-10-20T04:59:30.061Z,100212.41
2022-10-20T05:01:58.505Z,100211.36
2022-10-20T05:04:26.953Z,100214.14
2022-10-20T05:06:55.287Z,100217.88
2022-10-20T05:09:23.510Z,100220.05
2022-10-20T05:11:52.395Z,100223.39
2022-10-20T05:14:21.835Z,100225.52
2022-10-20T05:16:50.099Z,100226.94
2022-10-20T05:19:18.763Z,100231.84
2022-10-20T05:21:52.126Z,100233.39
2022-10-20T05:24:22.037Z,100235.14
2022-10-20T05:26:51.126Z,100237.44
2022-10-20T05:29:19.459Z,100239.04
2022-10-20T05:31:47.760Z,100242.86
2022-10-20T05:34:16.697Z,100240.73
2022-10-20T05:36:44.978Z,100244.52
2022-10-20T05:39:13.340Z,100249.15
2022-10-20T05:41:41.586Z,100251.51
2022-10-20T05:44:12.235Z,100253.05
2022-10-20T05:46:41.870Z,100253.67
2022-10-20T05:49:14.385Z,100262.55
2022-10-20T05:51:43.890Z,100268.64
2022-10-20T05:54:14.046Z,100269.92
2022-10-20T05:56:45.274Z,100271.38
2022-10-20T05:59:15.656Z,100274.95
2022-10-20T06:01:49.936Z,100278.02
2022-10-20T06:04:23.422Z,100274.37
2022-10-20T06:06:53.055Z,100276.85
2022-10-20T06:09:22.929Z,100275.55
2022-10-20T06:11:52.387Z,100276.25
2022-10-20T06:14:27.306Z,100277.88
2022-10-20T06:16:56.074Z,100275.70
2022-10-20T06:19:25.535Z,100273.58
2022-10-20T06:21:54.372Z,100276.20
2022-10-20T06:24:22.730Z,100281.77
2022-10-20T06:26:51.628Z,100287.46
2022-10-20T06:29:22.355Z,100289.30
2022-10-20T06:31:51.956Z,100289.23
2022-10-20T06:34:22.836Z,100288.63
2022-10-20T06:36:52.704Z,100285.55
2022-10-20T06:39:23.539Z,100289.30
2022-10-20T06:41:58.143Z,100292.70
2022-10-20T06:44:29.817Z,100291.86
2022-10-20T06:46:58.146Z,100292.13
2022-10-20T06:49:26.551Z,100290.98
2022-10-20T06:51:54.880Z,100290.34
2022-10-20T06:54:23.229Z,100287.58
2022-10-20T06:56:51.470Z,100285.45
2022-10-20T06:59:19.917Z,100284.52
2022-10-20T07:01:48.802Z,100283.13
2022-10-20T07:04:17.578Z,100279.25
2022-10-20T07:06:46.826Z,100272.48
2022-10-20T07:09:18.611Z,100271.02
2022-10-20T07:11:52.158Z,100273.95
2022-10-20T07:14:21.096Z,100277.77
2022-10-20T07:16:50.417Z,100276.48
2022-10-20T07:19:19.044Z,100272.56
2022-10-20T07:21:47.352Z,100271.09
2022-10-20T07:24:16.888Z,100271.47
2022-10-20T07:26:45.221Z,100269.17
2022-10-20T07:29:14.898Z,100270.62
2022-10-20T07:31:48.155Z,100276.47
2022-10-20T07:34:27.276Z,100280.11
2022-10-20T07:36:57.239Z,100274.34
2022-10-20T07:39:28.065Z,100274.45
2022-10-20T07:41:56.371Z,100271.58
2022-10-20T07:44:24.715Z,100267.95
2022-10-20T07:46:53.075Z,100263.16
2022-10-20T07:52:09.895Z,100262.03
2022-10-20T07:54:38.243Z,100260.46
2022-10-20T07:57:06.562Z,100260.24
2022-10-20T07:59:35.321Z,100254.52
2022-10-20T08:02:03.965Z,100247.64
2022-10-20T08:04:32.217Z,100243.14
2022-10-20T08:07:00.860Z,100243.17
2022-10-20T08:09:29.273Z,100241.58
2022-10-20T08:11:57.915Z,100235.59
2022-10-20T08:14:32.124Z,100239.52
2022-10-20T08:17:01.933Z,100243.02
2022-10-20T08:22:13.290Z,100239.06
2022-10-20T08:24:41.715Z,100238.23
2022-10-20T08:27:10.006Z,100238.01
2022-10-20T08:29:41.243Z,100238.88
2022-10-20T08:32:20.142Z,100239.14
2022-10-20T08:34:48.441Z,100243.95
2022-10-20T08:39:50.874Z,100244.38
2022-10-20T08:42:19.156Z,100249.66
2022-10-20T08:44:47.770Z,100249.63
2022-10-20T08:47:33.644Z,100251.17
2022-10-20T08:50:09.571Z,100252.59
2022-10-20T08:52:42.107Z,100255.59
2022-10-20T08:55:33.998Z,100255.13
2022-10-20T08:58:11.745Z,100249.70
2022-10-20T09:00:40.784Z,100250.36
2022-10-20T09:03:14.853Z,100251.64
2022-10-20T09:05:55.054Z,100251.58
2022-10-20T09:08:28.389Z,100252.70
2022-10-20T09:10:57.087Z,100252.77
2022-10-20T09:13:27.732Z,100254.89
2022-10-20T09:16:08.002Z,100256.55
2022-10-20T09:18:36.488Z,100257.21
2022-10-20T09:21:16.782Z,100254.20
2022-10-20T09:23:49.426Z,100253.56
2022-10-20T09:26:37.583Z,100257.02
2022-10-20T09:29:14.367Z,100256.61
2022-10-20T09:31:52.529Z,100257.54
2022-10-20T09:34:35.281Z,100254.71
2022-10-20T09:37:09.538Z,100250.89
2022-10-20T09:39:40.833Z,100245.70
2022-10-20T09:42:20.127Z,100242.84
2022-10-20T09:45:29.302Z,100243.61
2022-10-20T09:48:20.935Z,100237.67
2022-10-20T09:50:55.495Z,100230.98
2022-10-20T09:53:49.126Z,100226.48
2022-10-20T09:56:35.742Z,100224.81
2022-10-20T09:59:19.490Z,100216.11
2022-10-20T10:01:55.371Z,100217.34
2022-10-20T10:04:39.004Z,100216.80
2022-10-20T10:07:27.183Z,100217.70
2022-10-20T10:10:08.810Z,100215.79
2022-10-20T10:12:37.627Z,100215.06
2022-10-20T10:15:24.394Z,100212.14
2022-10-20T10:17:52.985Z,100211.95
2022-10-20T10:20:21.232Z,100213.94
2022-10-20T10:22:49.469Z,100216.59
2022-10-20T10:25:28.006Z,100216.80
2022-10-20T10:28:00.936Z,100216.16
2022-10-20T10:30:31.954Z,100211.86
2022-10-20T10:33:01.182Z,100209.31
2022-10-20T10:35:33.789Z,100208.82
2022-10-20T10:38:02.546Z,100208.05
2022-10-20T10:40:36.944Z,100203.20
2022-10-20T10:43:29.989Z,100199.54
2022-10-20T10:46:05.230Z,100196.20
2022-10-20T10:48:52.474Z,100189.71
2022-10-20T10:51:48.098Z,100185.46
2022-10-20T10:54:51.722Z,100188.20
2022-10-20T10:57:57.172Z,100186.20
2022-10-20T11:00:44.278Z,100183.58
2022-10-20T11:03:21.428Z,100176.65
2022-10-20T11:06:01.307Z,100172.88
2022-10-20T11:08:53.867Z,100172.69
2022-10-20T11:11:48.875Z,100172.97
2022-10-20T11:14:42.198Z,100171.38
2022-10-20T11:17:38.366Z,100165.86
2022-10-20T11:20:18.478Z,100162.11
2022-10-20T11:22:55.825Z,100149.50
2022-10-20T11:25:34.388Z,100146.33
2022-10-20T11:28:02.671Z,100148.53
2022-10-20T11:30:34.145Z,100140.46
2022-10-20T11:33:12.991Z,100138.59
2022-10-20T11:36:22.472Z,100137.21
2022-10-20T11:38:54.519Z,100133.41
2022-10-20T11:41:22.807Z,100130.21
2022-10-20T11:43:59.432Z,100126.08
2022-10-20T11:46:36.839Z,100121.42
2022-10-20T11:49:05.457Z,100119.73
2022-10-20T11:51:45.021Z,100116.77
2022-10-20T11:54:31.917Z,100113.15
2022-10-20T11:57:18.521Z,100109.44
2022-10-20T12:00:15.003Z,100108.96
2022-10-20T12:02:43.289Z,100106.19
2022-10-20T12:05:33.140Z,100104.08
2022-10-20T12:08:30.293Z,100100.39
2022-10-20T12:11:11.042Z,100103.73
2022-10-20T12:13:57.630Z,100101.24
2022-10-20T12:16:54.080Z,100095.27
2022-10-20T12:19:28.284Z,100089.20
2022-10-20T12:22:26.906Z,100084.58
2022-10-20T12:24:55.197Z,100084.59
2022-10-20T12:27:29.642Z,100079.88
2022-10-20T12:29:59.470Z,100085.45
2022-10-20T12:32:27.645Z,100084.80
2022-10-20T12:35:19.057Z,100083.52
2022-10-20T12:38:04.141Z,100078.01
2022-10-20T12:40:42.703Z,100076.60
2022-10-20T12:43:30.851Z,100070.86
2022-10-20T12:46:06.734Z,100067.17
2022-10-20T12:48:39.086Z,100063.50
2022-10-20T12:51:17.165Z,100063.76
2022-10-20T12:53:56.834Z,100062.75
2022-10-20T12:56:32.282Z,100065.36
2022-10-20T12:59:22.144Z,100062.95
2022-10-20T13:02:08.775Z,100060.41
2022-10-20T13:05:08.152Z,100063.30
2022-10-20T13:07:48.776Z,100063.25
2022-10-20T13:10:26.873Z,100062.97
2022-10-20T13:13:18.365Z,100058.02
2022-10-20T13:15:50.462Z,100058.05
2022-10-20T13:18:32.331Z,100056.27
2022-10-20T13:21:19.702Z,100060.15
2022-10-20T13:24:14.154Z,100056.76
2022-10-20T13:26:50.301Z,100059.65
2022-10-20T13:29:37.099Z,100060.21
2022-10-20T13:33:10.785Z,100057.51
2022-10-20T13:35:47.898Z,100059.14
2022-10-20T13:38:26.183Z,100058.09
2022-10-20T13:41:07.770Z,100052.08
2022-10-20T13:43:46.867Z,100051.95
2022-10-20T13:46:47.286Z,100054.91
2022-10-20T13:49:55.503Z,100054.86
2022-10-20T13:52:26.914Z,100052.16
2022-10-20T13:54:56.707Z,100054.14
2022-10-20T13:57:29.476Z,100048.93
2022-10-20T14:00:16.685Z,100045.41
2022-10-20T14:03:03.529Z,100042.67
2022-10-20T14:05:39.382Z,100036.23
2022-10-20T14:08:09.608Z,100033.65
2022-10-20T14:11:00.182Z,100037.05
2022-10-20T14:13:34.477Z,100040.50
2022-10-20T14:16:06.475Z,100039.19
2022-10-20T14:18:39.398Z,100036.63
2022-10-20T14:21:16.479Z,100034.20
2022-10-20T14:23:46.772Z,100032.20
2022-10-20T14:26:21.964Z,100035.25
2022-10-20T14:28:52.190Z,100034.04
2022-10-20T14:31:25.299Z,100031.27
2022-10-20T14:33:54.118Z,100025.18
2022-10-20T14:39:01.155Z,100025.48
2022-10-20T14:41:35.994Z,100019.17
2022-10-20T14:44:12.925Z,100019.83
2022-10-20T14:46:48.785Z,100020.20
2022-10-20T14:49:28.211Z,100020.55
2022-10-20T14:52:03.569Z,100018.52
2022-10-20T14:54:32.779Z,100016.41
2022-10-20T14:57:10.191Z,100013.75
2022-10-20T15:00:20.767Z,100014.08
2022-10-20T15:02:56.295Z,100013.73
2022-10-20T15:05:34.294Z,100011.63
2022-10-20T15:08:17.009Z,100009.17
2022-10-20T15:10:45.963Z,100010.30
2022-10-20T15:13:28.172Z,100011.07
2022-10-20T15:15:59.573Z,100005.08
2022-10-20T15:18:29.251Z,100007.48
2022-10-20T15:20:57.738Z,100002.35
2022-10-20T15:23:29.651Z,100002.09
2022-10-20T15:26:05.798Z,99997.02
2022-10-20T15:28:44.994Z,99995.77
2022-10-20T15:31:13.234Z,99992.69
2022-10-20T15:33:41.898Z,99995.64
2022-10-20T15:36:20.915Z,99992.88
2022-10-20T15:38:49.774Z,99989.77
2022-10-20T15:41:19.266Z,99987.63
2022-10-20T15:43:48.215Z,99986.52
2022-10-20T15:46:17.824Z,99985.69
2022-10-20T15:48:46.186Z,99989.45
2022-10-20T15:51:34.295Z,99989.27
2022-10-20T15:54:03.026Z,99990.29
2022-10-20T15:56:31.360Z,99988.52
2022-10-20T15:58:59.622Z,99983.41
2022-10-20T16:01:28.289Z,99978.84
2022-10-20T16:03:57.013Z,99980.72
2022-10-20T16:06:25.335Z,99984.45
2022-10-20T16:08:53.734Z,99984.96
2022-10-20T16:11:22.065Z,99987.69
2022-10-20T16:13:50.466Z,99987.88
2022-10-20T16:16:20.299Z,99985.14
2022-10-20T16:18:48.979Z,99989.52
2022-10-20T16:21:17.214Z,99991.63
2022-10-20T16:23:45.749Z,99990.33
2022-10-20T16:26:15.136Z,99992.52
2022-10-20T16:28:43.593Z,99993.46
2022-10-20T16:31:14.548Z,99993.58
2022-10-20T16:33:43.183Z,99994.30
2022-10-20T16:36:14.980Z,99996.32
2022-10-20T16:38:44.068Z,99995.31
2022-10-20T16:41:15.708Z,99995.39
2022-10-20T16:43:46.127Z,99995.29
2022-10-20T16:46:16.221Z,99995.59
2022-10-20T16:48:47.551Z,99996.71
2022-10-20T16:51:17.590Z,99999.72
2022-10-20T16:53:45.894Z,100003.55
2022-10-20T16:56:16.919Z,100004.14
2022-10-20T16:58:49.142Z,100004.14
2022-10-20T17:01:20.572Z,100006.96
2022-10-20T17:03:51.536Z,100007.92
2022-10-20T17:06:22.883Z,100005.88
2022-10-20T17:08:51.596Z,100002.30
2022-10-20T17:11:23.728Z,100001.38
2022-10-20T17:13:53.089Z,100001.27
2022-10-20T17:16:27.609Z,100004.71
2022-10-20T17:18:59.011Z,100002.11
2022-10-20T17:21:28.317Z,100004.41
2022-10-20T17:23:57.142Z,100003.61
2022-10-20T17:26:27.185Z,100007.61
2022-10-20T17:28:56.578Z,100007.60
2022-10-20T17:31:25.073Z,100009.87
2022-10-20T17:33:55.763Z,100010.02
2022-10-20T17:36:26.320Z,100005.77
2022-10-20T17:38:56.948Z,100003.85
2022-10-20T17:41:25.513Z,100006.64
2022-10-20T17:43:54.114Z,100005.66
2022-10-20T17:46:22.432Z,100002.65
2022-10-20T17:48:50.689Z,100002.81
2022-10-20T17:51:26.846Z,100001.00
2022-10-20T17:54:00.530Z,99998.20
2022-10-20T17:56:35.418Z,99996.09
2022-10-20T17:59:06.529Z,99996.41
2022-10-20T18:01:44.062Z,99992.59
2022-10-20T18:04:15.043Z,99991.70
2022-10-20T18:06:45.567Z,99989.55
2022-10-20T18:09:17.281Z,99984.75
2022-10-20T18:11:49.438Z,99978.56
2022-10-20T18:14:18.547Z,99971.81
2022-10-20T18:16:47.304Z,99972.21
2022-10-20T18:19:17.802Z,99972.30
2022-10-20T18:21:46.582Z,99975.67
2022-10-20T18:24:16.199Z,99975.48
2022-10-20T18:26:45.445Z,99976.77
2022-10-20T18:29:15.671Z,99975.09
2022-10-20T18:31:46.208Z,99969.64
2022-10-20T18:34:22.950Z,99965.95
2022-10-20T18:36:54.542Z,99966.55
2022-10-20T18:39:23.311Z,99968.35
2022-10-20T18:41:52.736Z,99966.73
2022-10-20T18:44:21.260Z,99965.34
2022-10-20T18:46:51.448Z,99958.82
2022-10-20T18:49:21.618Z,99957.26
2022-10-20T18:51:50.520Z,99958.92
2022-10-20T18:54:20.145Z,99962.39
2022-10-20T18:56:48.489Z,99963.25
2022-10-20T18:59:17.958Z,99968.77
2022-10-20T19:01:48.314Z,99964.27
2022-10-20T19:04:16.836Z,99964.23
2022-10-20T19:06:47.657Z,99963.66
2022-10-20T19:09:18.767Z,99958.28
2022-10-20T19:14:18.374Z,99954.90
2022-10-20T19:16:47.824Z,99951.29
2022-10-20T19:19:16.516Z,99939.04
2022-10-20T19:21:45.574Z,99940.50
2022-10-20T19:24:17.760Z,99938.79
2022-10-20T19:26:56.898Z,99938.46
2022-10-20T19:29:36.573Z,99938.23
2022-10-20T19:32:06.932Z,99939.27
2022-10-20T19:34:38.227Z,99937.50
2022-10-20T19:37:07.151Z,99936.81
2022-10-20T19:39:41.396Z,99941.22
2022-10-20T19:42:11.297Z,99946.75
2022-10-20T19:44:40.170Z,99950.30
2022-10-20T19:47:09.298Z,99947.39
2022-10-20T19:49:37.951Z,99943.90
2022-10-20T19:52:08.004Z,99935.25
2022-10-20T19:54:36.370Z,99930.29
2022-10-20T19:57:06.242Z,99934.38
2022-10-20T19:59:34.607Z,99937.29
2022-10-20T20:02:03.390Z,99940.50
2022-10-20T20:04:31.713Z,99939.36
2022-10-20T20:07:02.371Z,99937.69
2022-10-20T20:09:31.466Z,99936.16
2022-10-20T20:12:00.032Z,99940.40
2022-10-20T20:14:28.496Z,99935.17
2022-10-20T20:16:56.868Z,99935.61
2022-10-20T20:19:25.210Z,99933.80
2022-10-20T20:21:53.866Z,99928.81
2022-10-20T20:24:22.137Z,99922.91
2022-10-20T20:26:50.520Z,99922.92
2022-10-20T20:29:18.878Z,99921.08
2022-10-20T20:31:48.233Z,99922.16
2022-10-20T20:34:17.686Z,99922.36
2022-10-20T20:36:46.008Z,99924.36
2022-10-20T20:39:14.294Z,99923.92
2022-10-20T20:41:42.885Z,99920.68
2022-10-20T20:44:11.229Z,99919.87
2022-10-20T20:46:39.694Z,99916.06
2022-10-20T20:49:08.151Z,99913.13
2022-10-20T20:51:36.519Z,99910.17
2022-10-20T20:54:04.838Z,99904.08
2022-10-20T20:56:33.184Z,99907.23
2022-10-20T20:59:01.711Z,99912.34
2022-10-20T21:01:34.040Z,99908.90
2022-10-20T21:04:05.562Z,99907.55
2022-10-20T21:06:56.588Z,99906.44
2022-10-20T21:09:22.640Z,99901.74
2022-10-20T21:11:50.873Z,99896.35
2022-10-20T21:14:19.446Z,99895.31
2022-10-20T21:16:47.803Z,99896.55
2022-10-20T21:19:16.243Z,99895.96
2022-10-20T21:21:50.624Z,99889.52
2022-10-20T21:24:19.205Z,99888.48
2022-10-20T21:26:48.847Z,99880.05
2022-10-20T21:29:17.774Z,99874.65
2022-10-20T21:31:46.143Z,99872.93
2022-10-20T21:34:14.554Z,99869.13
2022-10-20T21:36:43.209Z,99868.63
2022-10-20T21:39:15.940Z,99867.98
2022-10-20T21:41:45.803Z,99868.70
2022-10-20T21:44:15.163Z,99862.41
2022-10-20T21:46:49.369Z,99854.71
2022-10-20T21:49:21.142Z,99854.20
2022-10-20T21:51:55.603Z,99848.96
2022-10-20T21:54:26.048Z,99851.14
2022-10-20T21:56:55.291Z,99849.05
2022-10-20T21:59:29.491Z,99846.09
2022-10-20T22:02:00.117Z,99840.86
2022-10-20T22:04:30.005Z,99841.29
2022-10-20T22:06:59.737Z,99842.02
2022-10-20T22:09:28.307Z,99840.09
2022-10-20T22:11:58.576Z,99835.73
2022-10-20T22:14:28.178Z,99832.17
2022-10-20T22:16:56.769Z,99833.84
2022-10-20T22:19:25.588Z,99833.52
2022-10-20T22:21:54.801Z,99833.91
2022-10-20T22:24:23.702Z,99835.86
2022-10-20T22:26:52.972Z,99830.30
2022-10-20T22:29:23.194Z,99831.22
2022-10-20T22:31:51.813Z,99830.19
2022-10-20T22:34:20.156Z,99826.66
2022-10-20T22:36:48.514Z,99825.27
2022-10-20T22:39:16.761Z,99822.29
2022-10-20T22:41:45.023Z,99822.30
2022-10-20T22:44:13.381Z,99816.85
2022-10-20T22:46:41.586Z,99813.71
2022-10-20T22:49:12.106Z,99810.04
2022-10-20T22:51:40.404Z,99810.10
2022-10-20T22:54:08.698Z,99809.95
2022-10-20T22:56:36.960Z,99805.41
2022-10-20T22:59:05.277Z,99804.57
2022-10-20T23:01:33.675Z,99802.69
2022-10-20T23:04:02.073Z,99802.23
2022-10-20T23:06:30.352Z,99795.96
2022-10-20T23:08:58.699Z,99792.73
2022-10-20T23:11:28.734Z,99789.73
2022-10-20T23:13:57.007Z,99789.84
2022-10-20T23:18:58.796Z,99795.55
2022-10-20T23:21:27.025Z,99791.07
2022-10-20T23:23:55.281Z,99792.48
2022-10-20T23:26:23.708Z,99793.19
2022-10-20T23:28:52.123Z,99787.13
2022-10-20T23:31:22.052Z,99781.20
2022-10-20T23:33:54.390Z,99775.77
2022-10-20T23:36:23.297Z,99768.96
2022-10-20T23:38:51.893Z,99772.15
2022-10-20T23:41:20.227Z,99779.49
2022-10-20T23:43:48.566Z,99779.55
2022-10-20T23:46:16.886Z,99777.70
2022-10-20T23:48:45.190Z,99773.51
2022-10-20T23:51:13.555Z,99769.84
2022-10-20T23:53:41.948Z,99768.23
2022-10-20T23:56:10.191Z,99763.84
2022-10-20T23:58:38.398Z,99765.73
